This demonstration page uses our WeatherBlox Daily Observations layout. Learn more.

38.88101, -77.10428

Hourly Observations for May 31, 2019

Temp ( °F °C ) Dew Point ( °F °C ) Humidity (%) Winds ( mph kmh ) Pressure ( in mb ) Visibility ( mi km ) Precip ( " mm )
12:52 am 00:52 Clear 73 22.8 62 16.7 69 69 SSW 9 15 29.74 1007 10 16.09344 0 0
1:52 am 01:52 Mostly Cloudy 70 21.1 64 17.8 82 82 S 7 11 29.77 1008 10 16.09344 0 0
2:52 am 02:52 Mostly Clear 70 21.1 62 16.7 76 76 SSW 5 7 29.77 1008 10 16.09344 0 0
3:52 am 03:52 Clear 69 20.6 61 16.1 76 76 SW 3 6 29.77 1008 10 16.09344 0 0
4:52 am 04:52 Clear 68 20 62 16.7 81 81 SW 3 6 29.77 1008 10 16.09344 0 0
5:52 am 05:52 Mostly Sunny 67 19.4 62 16.7 84 84 SSW 5 7 29.8 1009 10 16.09344 0 0
6:52 am 06:52 Mostly Sunny 69 20.6 61 16.1 76 76 SW 6 9 29.8 1009 10 16.09344 0 0
7:52 am 07:52 Sunny 75 23.9 61 16.1 62 62 W 8 13 29.83 1010 10 16.09344 0 0
8:52 am 08:52 Mostly Sunny 77 25 61 16.1 58 58 WNW 8 13 29.83 1010 10 16.09344 0 0
10:52 am 10:52 Mostly Cloudy 79 26.1 61 16.1 54 54 WSW 10 17 29.83 1010 10 16.09344 0 0
11:52 am 11:52 Mostly Cloudy 81 27.2 59 15 47 47 WNW 7 11 29.83 1010 10 16.09344 0 0
12:52 pm 12:52 Mostly Cloudy 81 27.2 60 15.6 49 49 NNW 9 15 29.83 1010 10 16.09344 0 0
1:52 pm 13:52 Mostly Cloudy 83 28.3 62 16.7 49 49 NNW 10 17 29.8 1009 10 16.09344 0 0
2:52 pm 14:52 Partly Cloudy 84 28.9 59 15 43 43 NNW 7 11 29.8 1009 10 16.09344 0 0
3:52 pm 15:52 Mostly Cloudy 85 29.4 58 14.4 40 40 NE 7 11 29.77 1008 10 16.09344 0 0
4:52 pm 16:52 Mostly Cloudy 83 28.3 58 14.4 43 43 NNW 6 9 29.77 1008 10 16.09344 0 0
5:52 pm 17:52 Cloudy 83 28.3 57 13.9 41 41 N 6 9 29.77 1008 10 16.09344 0 0
6:52 pm 18:52 Cloudy 81 27.2 57 13.9 44 44 NNW 10 17 29.77 1008 10 16.09344 0 0
7:52 pm 19:52 Cloudy 79 26.1 64 17.8 60 60 SE 7 11 29.77 1008 10 16.09344 0 0
8:52 pm 20:52 Cloudy 77 25 64 17.8 64 64 Calm 29.77 1008 10 16.09344 0 0
9:52 pm 21:52 Cloudy 79 26.1 61 16.1 54 54 Calm 29.8 1009 10 16.09344 0 0
10:14 pm 22:14 Mostly Clear with Nearby Thunderstorms 78 25.6 61 16.1 56 56 SSE 3 6 29.83 1010 10 16.09344 0 0
10:52 pm 22:52 Cloudy with Nearby Thunderstorms 77 25 64 17.8 64 64 SSE 6 9 29.83 1010 10 16.09344 0 0
11:25 pm 23:25 Cloudy 76 24.4 64 17.8 67 67 SE 5 7 29.83 1010 10 16.09344 0 0
11:52 pm 23:52 Cloudy 75 23.9 64 17.8 69 69 S 5 7 29.8 1009 10 16.09344 0 0

Powered by AerisWeather